sensor_id;sensor_type;location;lat;lon;timestamp;temperature;humidity
44647;DHT22;56315;-33.902;151.160;2023-04-01T00:01:50;20.80;99.90
44647;DHT22;56315;-33.902;151.160;2023-04-01T00:04:17;20.80;99.90
44647;DHT22;56315;-33.902;151.160;2023-04-01T00:06:45;20.60;99.90
44647;DHT22;56315;-33.902;151.160;2023-04-01T00:09:14;20.30;99.90
44647;DHT22;56315;-33.902;151.160;2023-04-01T00:11:41;20.00;99.90
44647;DHT22;56315;-33.902;151.160;2023-04-01T00:14:09;19.70;99.90
44647;DHT22;56315;-33.902;151.160;2023-04-01T00:16:37;19.60;99.90
44647;DHT22;56315;-33.902;151.160;2023-04-01T00:19:04;19.50;99.90
44647;DHT22;56315;-33.902;151.160;2023-04-01T00:21:32;19.50;99.90
44647;DHT22;56315;-33.902;151.160;2023-04-01T00:23:59;19.50;99.90
44647;DHT22;56315;-33.902;151.160;2023-04-01T00:26:26;19.40;99.90
44647;DHT22;56315;-33.902;151.160;2023-04-01T00:28:54;19.40;99.90
44647;DHT22;56315;-33.902;151.160;2023-04-01T00:31:21;19.40;99.90
44647;DHT22;56315;-33.902;151.160;2023-04-01T00:33:48;19.40;99.90
44647;DHT22;56315;-33.902;151.160;2023-04-01T00:36:19;19.40;99.90
44647;DHT22;56315;-33.902;151.160;2023-04-01T00:38:47;19.50;99.90
44647;DHT22;56315;-33.902;151.160;2023-04-01T00:41:16;19.50;99.90
44647;DHT22;56315;-33.902;151.160;2023-04-01T00:43:45;19.40;99.90
44647;DHT22;56315;-33.902;151.160;2023-04-01T00:46:13;19.40;99.90
44647;DHT22;56315;-33.902;151.160;2023-04-01T00:48:54;19.50;99.90
44647;DHT22;56315;-33.902;151.160;2023-04-01T00:51:27;19.50;99.90
44647;DHT22;56315;-33.902;151.160;2023-04-01T00:53:58;19.40;99.90
44647;DHT22;56315;-33.902;151.160;2023-04-01T00:59:36;19.10;99.90
44647;DHT22;56315;-33.902;151.160;2023-04-01T01:02:07;19.10;99.90
44647;DHT22;56315;-33.902;151.160;2023-04-01T01:04:35;19.00;99.90
44647;DHT22;56315;-33.902;151.160;2023-04-01T01:07:20;19.00;99.90
44647;DHT22;56315;-33.902;151.160;2023-04-01T01:15:47;18.60;99.90
44647;DHT22;56315;-33.902;151.160;2023-04-01T01:18:37;18.40;99.90
44647;DHT22;56315;-33.902;151.160;2023-04-01T01:27:16;18.40;99.90
44647;DHT22;56315;-33.902;151.160;2023-04-01T01:29:55;18.60;99.90
44647;DHT22;56315;-33.902;151.160;2023-04-01T01:37:42;19.00;99.90
44647;DHT22;56315;-33.902;151.160;2023-04-01T01:40:12;19.00;99.90
44647;DHT22;56315;-33.902;151.160;2023-04-01T01:42:47;19.00;99.90
44647;DHT22;56315;-33.902;151.160;2023-04-01T01:45:17;19.00;99.90
44647;DHT22;56315;-33.902;151.160;2023-04-01T01:47:46;19.00;99.90
44647;DHT22;56315;-33.902;151.160;2023-04-01T01:50:14;19.00;99.90
44647;DHT22;56315;-33.902;151.160;2023-04-01T01:52:42;19.00;99.90
44647;DHT22;56315;-33.902;151.160;2023-04-01T01:55:29;18.90;99.90
44647;DHT22;56315;-33.902;151.160;2023-04-01T01:58:23;18.80;99.90
44647;DHT22;56315;-33.902;151.160;2023-04-01T02:01:16;18.90;99.90
44647;DHT22;56315;-33.902;151.160;2023-04-01T02:03:45;18.80;99.90
44647;DHT22;56315;-33.902;151.160;2023-04-01T02:06:17;18.90;99.90
44647;DHT22;56315;-33.902;151.160;2023-04-01T02:08:59;18.80;99.90
44647;DHT22;56315;-33.902;151.160;2023-04-01T02:14:45;18.70;99.90
44647;DHT22;56315;-33.902;151.160;2023-04-01T02:17:20;18.80;99.90
44647;DHT22;56315;-33.902;151.160;2023-04-01T02:22:21;18.90;99.90
44647;DHT22;56315;-33.902;151.160;2023-04-01T02:24:50;18.90;99.90
44647;DHT22;56315;-33.902;151.160;2023-04-01T02:27:19;18.60;99.90
44647;DHT22;56315;-33.902;151.160;2023-04-01T02:29:47;18.50;99.90
44647;DHT22;56315;-33.902;151.160;2023-04-01T02:32:15;18.30;99.90
44647;DHT22;56315;-33.902;151.160;2023-04-01T02:34:43;18.30;99.90
44647;DHT22;56315;-33.902;151.160;2023-04-01T02:37:12;18.20;99.90
44647;DHT22;56315;-33.902;151.160;2023-04-01T02:39:40;18.10;99.90
44647;DHT22;56315;-33.902;151.160;2023-04-01T02:42:09;18.00;99.90
44647;DHT22;56315;-33.902;151.160;2023-04-01T02:44:37;17.90;99.90
44647;DHT22;56315;-33.902;151.160;2023-04-01T02:47:04;17.70;99.90
44647;DHT22;56315;-33.902;151.160;2023-04-01T02:49:31;17.50;99.90
44647;DHT22;56315;-33.902;151.160;2023-04-01T02:51:58;17.50;99.90
44647;DHT22;56315;-33.902;151.160;2023-04-01T02:54:25;17.50;99.90
44647;DHT22;56315;-33.902;151.160;2023-04-01T02:56:53;17.50;99.90
44647;DHT22;56315;-33.902;151.160;2023-04-01T02:59:20;17.70;99.90
44647;DHT22;56315;-33.902;151.160;2023-04-01T03:01:47;17.70;99.90
44647;DHT22;56315;-33.902;151.160;2023-04-01T03:04:14;17.70;99.90
44647;DHT22;56315;-33.902;151.160;2023-04-01T03:06:41;17.80;99.90
44647;DHT22;56315;-33.902;151.160;2023-04-01T03:09:09;17.90;99.90
44647;DHT22;56315;-33.902;151.160;2023-04-01T03:11:37;17.90;99.90
44647;DHT22;56315;-33.902;151.160;2023-04-01T03:14:04;17.90;99.90
44647;DHT22;56315;-33.902;151.160;2023-04-01T03:16:31;17.90;99.90
44647;DHT22;56315;-33.902;151.160;2023-04-01T03:18:58;17.90;99.90
44647;DHT22;56315;-33.902;151.160;2023-04-01T03:21:28;18.00;99.90
44647;DHT22;56315;-33.902;151.160;2023-04-01T03:23:55;18.20;99.90
44647;DHT22;56315;-33.902;151.160;2023-04-01T03:26:22;18.30;99.90
44647;DHT22;56315;-33.902;151.160;2023-04-01T03:28:50;18.40;99.90
44647;DHT22;56315;-33.902;151.160;2023-04-01T03:31:17;18.40;99.90
44647;DHT22;56315;-33.902;151.160;2023-04-01T03:33:44;18.30;99.90
44647;DHT22;56315;-33.902;151.160;2023-04-01T03:36:12;18.20;99.90
44647;DHT22;56315;-33.902;151.160;2023-04-01T03:38:41;18.00;99.90
44647;DHT22;56315;-33.902;151.160;2023-04-01T03:41:13;18.00;99.90
44647;DHT22;56315;-33.902;151.160;2023-04-01T03:43:41;18.00;99.90
44647;DHT22;56315;-33.902;151.160;2023-04-01T03:46:08;18.10;99.90
44647;DHT22;56315;-33.902;151.160;2023-04-01T03:48:36;18.10;99.90
44647;DHT22;56315;-33.902;151.160;2023-04-01T03:51:07;18.20;99.90
44647;DHT22;56315;-33.902;151.160;2023-04-01T03:53:35;18.30;99.90
44647;DHT22;56315;-33.902;151.160;2023-04-01T03:56:08;18.30;99.90
44647;DHT22;56315;-33.902;151.160;2023-04-01T03:58:36;18.30;99.90
44647;DHT22;56315;-33.902;151.160;2023-04-01T04:01:03;18.40;99.90
44647;DHT22;56315;-33.902;151.160;2023-04-01T04:03:39;18.40;99.90
44647;DHT22;56315;-33.902;151.160;2023-04-01T04:06:11;18.50;99.90
44647;DHT22;56315;-33.902;151.160;2023-04-01T04:08:39;18.60;99.90
44647;DHT22;56315;-33.902;151.160;2023-04-01T04:11:07;18.60;99.90
44647;DHT22;56315;-33.902;151.160;2023-04-01T04:13:36;18.70;99.90
44647;DHT22;56315;-33.902;151.160;2023-04-01T04:16:04;18.60;99.90
44647;DHT22;56315;-33.902;151.160;2023-04-01T04:18:32;18.60;99.90
44647;DHT22;56315;-33.902;151.160;2023-04-01T04:20:59;18.60;99.90
44647;DHT22;56315;-33.902;151.160;2023-04-01T04:23:27;18.60;99.90
44647;DHT22;56315;-33.902;151.160;2023-04-01T04:25:59;18.50;99.90
44647;DHT22;56315;-33.902;151.160;2023-04-01T04:28:28;18.40;99.90
44647;DHT22;56315;-33.902;151.160;2023-04-01T04:30:56;18.30;99.90
44647;DHT22;56315;-33.902;151.160;2023-04-01T04:33:24;18.10;99.90
44647;DHT22;56315;-33.902;151.160;2023-04-01T04:35:55;18.10;99.90
44647;DHT22;56315;-33.902;151.160;2023-04-01T04:38:23;18.10;99.90
44647;DHT22;56315;-33.902;151.160;2023-04-01T04:40:51;18.10;99.90
44647;DHT22;56315;-33.902;151.160;2023-04-01T04:43:19;18.10;99.90
44647;DHT22;56315;-33.902;151.160;2023-04-01T04:45:47;18.00;99.90
44647;DHT22;56315;-33.902;151.160;2023-04-01T04:48:16;17.90;99.90
44647;DHT22;56315;-33.902;151.160;2023-04-01T04:50:46;17.90;99.90
44647;DHT22;56315;-33.902;151.160;2023-04-01T04:53:17;18.00;99.90
44647;DHT22;56315;-33.902;151.160;2023-04-01T04:55:48;18.00;99.90
44647;DHT22;56315;-33.902;151.160;2023-04-01T04:58:16;17.90;99.90
44647;DHT22;56315;-33.902;151.160;2023-04-01T05:00:44;17.90;99.90
44647;DHT22;56315;-33.902;151.160;2023-04-01T05:03:12;17.90;99.90
44647;DHT22;56315;-33.902;151.160;2023-04-01T05:05:39;17.90;99.90
44647;DHT22;56315;-33.902;151.160;2023-04-01T05:08:07;17.90;99.90
44647;DHT22;56315;-33.902;151.160;2023-04-01T05:10:34;18.00;99.90
44647;DHT22;56315;-33.902;151.160;2023-04-01T05:13:02;18.10;99.90
44647;DHT22;56315;-33.902;151.160;2023-04-01T05:15:30;18.20;99.90
44647;DHT22;56315;-33.902;151.160;2023-04-01T05:17:57;18.40;99.90
44647;DHT22;56315;-33.902;151.160;2023-04-01T05:20:25;18.50;99.90
44647;DHT22;56315;-33.902;151.160;2023-04-01T05:22:56;18.70;99.90
44647;DHT22;56315;-33.902;151.160;2023-04-01T05:25:24;18.90;99.90
44647;DHT22;56315;-33.902;151.160;2023-04-01T05:27:52;19.10;99.90
44647;DHT22;56315;-33.902;151.160;2023-04-01T05:30:20;19.30;99.90
44647;DHT22;56315;-33.902;151.160;2023-04-01T05:32:47;19.40;99.90
44647;DHT22;56315;-33.902;151.160;2023-04-01T05:35:15;19.40;99.90
44647;DHT22;56315;-33.902;151.160;2023-04-01T05:37:43;19.60;99.90
44647;DHT22;56315;-33.902;151.160;2023-04-01T05:40:11;19.80;99.90
44647;DHT22;56315;-33.902;151.160;2023-04-01T05:42:39;19.90;99.90
44647;DHT22;56315;-33.902;151.160;2023-04-01T05:45:09;20.10;99.90
44647;DHT22;56315;-33.902;151.160;2023-04-01T05:47:37;20.20;99.90
44647;DHT22;56315;-33.902;151.160;2023-04-01T05:50:05;20.40;99.90
44647;DHT22;56315;-33.902;151.160;2023-04-01T05:52:33;20.60;99.90
44647;DHT22;56315;-33.902;151.160;2023-04-01T05:55:00;20.50;99.90
44647;DHT22;56315;-33.902;151.160;2023-04-01T05:57:28;20.50;99.90
44647;DHT22;56315;-33.902;151.160;2023-04-01T05:59:55;20.50;99.90
44647;DHT22;56315;-33.902;151.160;2023-04-01T06:02:23;20.50;99.90
44647;DHT22;56315;-33.902;151.160;2023-04-01T06:05:02;20.50;99.90
44647;DHT22;56315;-33.902;151.160;2023-04-01T06:07:30;20.60;99.90
44647;DHT22;56315;-33.902;151.160;2023-04-01T06:09:57;20.50;99.90
44647;DHT22;56315;-33.902;151.160;2023-04-01T06:12:47;20.50;99.90
44647;DHT22;56315;-33.902;151.160;2023-04-01T06:15:23;20.50;99.90
44647;DHT22;56315;-33.902;151.160;2023-04-01T06:51:17;19.60;99.90
44647;DHT22;56315;-33.902;151.160;2023-04-01T06:54:04;19.70;99.90
44647;DHT22;56315;-33.902;151.160;2023-04-01T06:56:33;19.70;99.90
44647;DHT22;56315;-33.902;151.160;2023-04-01T06:59:31;19.70;99.90
44647;DHT22;56315;-33.902;151.160;2023-04-01T07:04:40;19.80;99.90
44647;DHT22;56315;-33.902;151.160;2023-04-01T07:10:02;19.70;99.90
44647;DHT22;56315;-33.902;151.160;2023-04-01T07:15:26;19.70;99.90
44647;DHT22;56315;-33.902;151.160;2023-04-01T07:17:59;19.70;99.90
44647;DHT22;56315;-33.902;151.160;2023-04-01T07:20:35;19.60;99.90
44647;DHT22;56315;-33.902;151.160;2023-04-01T07:23:03;19.60;99.90
44647;DHT22;56315;-33.902;151.160;2023-04-01T07:25:41;19.50;99.90
44647;DHT22;56315;-33.902;151.160;2023-04-01T07:28:15;19.50;99.90
44647;DHT22;56315;-33.902;151.160;2023-04-01T07:36:42;19.50;99.90
44647;DHT22;56315;-33.902;151.160;2023-04-01T07:53:28;19.20;99.90
44647;DHT22;56315;-33.902;151.160;2023-04-01T07:56:09;19.20;99.90
44647;DHT22;56315;-33.902;151.160;2023-04-01T08:01:43;19.10;99.90
44647;DHT22;56315;-33.902;151.160;2023-04-01T08:07:17;19.10;99.90
44647;DHT22;56315;-33.902;151.160;2023-04-01T08:15:28;19.10;99.90
44647;DHT22;56315;-33.902;151.160;2023-04-01T08:21:02;19.10;99.90
44647;DHT22;56315;-33.902;151.160;2023-04-01T08:23:48;19.10;99.90
44647;DHT22;56315;-33.902;151.160;2023-04-01T08:26:35;19.10;99.90
44647;DHT22;56315;-33.902;151.160;2023-04-01T08:29:47;19.00;99.90
44647;DHT22;56315;-33.902;151.160;2023-04-01T08:32:30;19.10;99.90
44647;DHT22;56315;-33.902;151.160;2023-04-01T08:35:20;19.00;99.90
44647;DHT22;56315;-33.902;151.160;2023-04-01T08:37:53;19.00;99.90
44647;DHT22;56315;-33.902;151.160;2023-04-01T08:49:25;19.00;99.90
44647;DHT22;56315;-33.902;151.160;2023-04-01T09:14:25;18.70;99.90
44647;DHT22;56315;-33.902;151.160;2023-04-01T09:17:44;18.70;99.90
44647;DHT22;56315;-33.902;151.160;2023-04-01T09:42:29;18.60;99.90
44647;DHT22;56315;-33.902;151.160;2023-04-01T09:44:59;18.60;99.90
44647;DHT22;56315;-33.902;151.160;2023-04-01T09:53:32;18.50;99.90
44647;DHT22;56315;-33.902;151.160;2023-04-01T10:01:46;18.60;99.90
44647;DHT22;56315;-33.902;151.160;2023-04-01T10:04:31;18.60;99.90
44647;DHT22;56315;-33.902;151.160;2023-04-01T10:29:20;18.50;99.90
44647;DHT22;56315;-33.902;151.160;2023-04-01T10:35:08;18.30;99.90
44647;DHT22;56315;-33.902;151.160;2023-04-01T10:52:42;17.80;99.90
44647;DHT22;56315;-33.902;151.160;2023-04-01T11:15:08;17.30;99.90
44647;DHT22;56315;-33.902;151.160;2023-04-01T11:45:36;17.70;99.90
44647;DHT22;56315;-33.902;151.160;2023-04-01T11:48:22;17.60;99.90
44647;DHT22;56315;-33.902;151.160;2023-04-01T11:54:00;17.40;99.90
44647;DHT22;56315;-33.902;151.160;2023-04-01T11:56:47;17.30;99.90
44647;DHT22;56315;-33.902;151.160;2023-04-01T11:59:28;17.20;99.90
44647;DHT22;56315;-33.902;151.160;2023-04-01T12:04:58;17.20;99.90
44647;DHT22;56315;-33.902;151.160;2023-04-01T12:10:02;17.20;99.90
44647;DHT22;56315;-33.902;151.160;2023-04-01T12:12:48;17.20;99.90
44647;DHT22;56315;-33.902;151.160;2023-04-01T12:24:25;17.40;99.90
44647;DHT22;56315;-33.902;151.160;2023-04-01T12:35:42;17.30;99.90
44647;DHT22;56315;-33.902;151.160;2023-04-01T12:41:09;17.10;99.90
44647;DHT22;56315;-33.902;151.160;2023-04-01T12:44:03;17.10;99.90
44647;DHT22;56315;-33.902;151.160;2023-04-01T12:52:25;16.90;99.90
44647;DHT22;56315;-33.902;151.160;2023-04-01T12:55:52;16.90;99.90
44647;DHT22;56315;-33.902;151.160;2023-04-01T13:06:36;17.00;99.90
44647;DHT22;56315;-33.902;151.160;2023-04-01T13:09:39;17.00;99.90
44647;DHT22;56315;-33.902;151.160;2023-04-01T13:23:20;17.20;99.90
44647;DHT22;56315;-33.902;151.160;2023-04-01T13:29:14;17.30;99.90
44647;DHT22;56315;-33.902;151.160;2023-04-01T13:32:47;17.30;99.90
44647;DHT22;56315;-33.902;151.160;2023-04-01T13:35:04;17.40;99.90
44647;DHT22;56315;-33.902;151.160;2023-04-01T13:43:32;17.40;99.90
44647;DHT22;56315;-33.902;151.160;2023-04-01T13:46:41;17.40;99.90
44647;DHT22;56315;-33.902;151.160;2023-04-01T13:52:26;17.40;99.90
44647;DHT22;56315;-33.902;151.160;2023-04-01T14:03:44;17.20;99.90
44647;DHT22;56315;-33.902;151.160;2023-04-01T14:09:26;17.10;99.90
44647;DHT22;56315;-33.902;151.160;2023-04-01T14:12:27;17.00;99.90
44647;DHT22;56315;-33.902;151.160;2023-04-01T14:15:08;17.00;99.90
44647;DHT22;56315;-33.902;151.160;2023-04-01T14:23:11;16.90;99.90
44647;DHT22;56315;-33.902;151.160;2023-04-01T14:40:26;16.80;99.90
44647;DHT22;56315;-33.902;151.160;2023-04-01T14:45:58;16.70;99.90
44647;DHT22;56315;-33.902;151.160;2023-04-01T14:51:38;16.50;99.90
44647;DHT22;56315;-33.902;151.160;2023-04-01T14:56:51;16.30;99.90
44647;DHT22;56315;-33.902;151.160;2023-04-01T14:59:29;16.20;99.90
44647;DHT22;56315;-33.902;151.160;2023-04-01T15:05:39;16.10;99.90
44647;DHT22;56315;-33.902;151.160;2023-04-01T15:08:09;16.10;99.90
44647;DHT22;56315;-33.902;151.160;2023-04-01T15:21:43;16.40;99.90
44647;DHT22;56315;-33.902;151.160;2023-04-01T15:38:21;16.60;99.90
44647;DHT22;56315;-33.902;151.160;2023-04-01T16:05:32;16.50;99.90
44647;DHT22;56315;-33.902;151.160;2023-04-01T16:16:07;16.70;99.90
44647;DHT22;56315;-33.902;151.160;2023-04-01T16:18:46;16.70;99.90
44647;DHT22;56315;-33.902;151.160;2023-04-01T16:24:24;16.50;99.90
44647;DHT22;56315;-33.902;151.160;2023-04-01T16:26:59;16.40;99.90
44647;DHT22;56315;-33.902;151.160;2023-04-01T16:33:03;16.30;99.90
44647;DHT22;56315;-33.902;151.160;2023-04-01T16:35:47;16.30;99.90
44647;DHT22;56315;-33.902;151.160;2023-04-01T16:38:33;16.20;99.90
44647;DHT22;56315;-33.902;151.160;2023-04-01T16:41:57;16.20;99.90
44647;DHT22;56315;-33.902;151.160;2023-04-01T16:44:24;16.20;99.90
44647;DHT22;56315;-33.902;151.160;2023-04-01T16:46:57;16.20;99.90
44647;DHT22;56315;-33.902;151.160;2023-04-01T16:49:52;16.30;99.90
44647;DHT22;56315;-33.902;151.160;2023-04-01T16:52:41;16.30;99.90
44647;DHT22;56315;-33.902;151.160;2023-04-01T16:55:21;16.40;99.90
44647;DHT22;56315;-33.902;151.160;2023-04-01T16:57:56;16.40;99.90
44647;DHT22;56315;-33.902;151.160;2023-04-01T17:03:30;16.50;99.90
44647;DHT22;56315;-33.902;151.160;2023-04-01T17:09:24;16.30;99.90
44647;DHT22;56315;-33.902;151.160;2023-04-01T17:14:46;16.30;99.90
44647;DHT22;56315;-33.902;151.160;2023-04-01T17:22:58;16.50;99.90
44647;DHT22;56315;-33.902;151.160;2023-04-01T17:37:14;16.90;99.90
44647;DHT22;56315;-33.902;151.160;2023-04-01T17:42:34;16.90;99.90
44647;DHT22;56315;-33.902;151.160;2023-04-01T17:45:42;16.90;99.90
44647;DHT22;56315;-33.902;151.160;2023-04-01T17:51:26;16.70;99.90
44647;DHT22;56315;-33.902;151.160;2023-04-01T17:59:39;16.40;99.90
44647;DHT22;56315;-33.902;151.160;2023-04-01T18:02:32;16.40;99.90
44647;DHT22;56315;-33.902;151.160;2023-04-01T18:11:34;16.30;99.90
44647;DHT22;56315;-33.902;151.160;2023-04-01T18:22:44;16.10;99.90
44647;DHT22;56315;-33.902;151.160;2023-04-01T18:31:05;16.20;99.90
44647;DHT22;56315;-33.902;151.160;2023-04-01T18:33:48;16.30;99.90
44647;DHT22;56315;-33.902;151.160;2023-04-01T18:39:17;16.30;99.90
44647;DHT22;56315;-33.902;151.160;2023-04-01T18:44:46;16.30;99.90
44647;DHT22;56315;-33.902;151.160;2023-04-01T18:55:59;16.40;99.90
44647;DHT22;56315;-33.902;151.160;2023-04-01T18:58:29;16.30;99.90
44647;DHT22;56315;-33.902;151.160;2023-04-01T19:03:52;16.30;99.90
44647;DHT22;56315;-33.902;151.160;2023-04-01T19:06:56;16.40;99.90
44647;DHT22;56315;-33.902;151.160;2023-04-01T19:09:44;16.40;99.90
44647;DHT22;56315;-33.902;151.160;2023-04-01T19:12:15;16.50;99.90
44647;DHT22;56315;-33.902;151.160;2023-04-01T19:20:38;16.30;99.90
44647;DHT22;56315;-33.902;151.160;2023-04-01T19:26:09;16.10;99.90
44647;DHT22;56315;-33.902;151.160;2023-04-01T19:34:25;16.00;99.90
44647;DHT22;56315;-33.902;151.160;2023-04-01T20:01:08;16.40;99.90
44647;DHT22;56315;-33.902;151.160;2023-04-01T20:06:51;16.50;99.90
44647;DHT22;56315;-33.902;151.160;2023-04-01T20:12:30;16.60;99.90
44647;DHT22;56315;-33.902;151.160;2023-04-01T20:15:19;16.70;99.90
44647;DHT22;56315;-33.902;151.160;2023-04-01T20:17:49;16.70;99.90
44647;DHT22;56315;-33.902;151.160;2023-04-01T20:20:26;16.70;99.90
44647;DHT22;56315;-33.902;151.160;2023-04-01T20:26:13;16.80;99.90
44647;DHT22;56315;-33.902;151.160;2023-04-01T20:40:30;16.80;99.90
44647;DHT22;56315;-33.902;151.160;2023-04-01T20:45:56;16.80;99.90
44647;DHT22;56315;-33.902;151.160;2023-04-01T20:48:42;16.80;99.90
44647;DHT22;56315;-33.902;151.160;2023-04-01T20:51:32;16.70;99.90
44647;DHT22;56315;-33.902;151.160;2023-04-01T21:07:50;16.30;99.90
44647;DHT22;56315;-33.902;151.160;2023-04-01T21:18:39;16.40;99.90
44647;DHT22;56315;-33.902;151.160;2023-04-01T21:56:26;16.00;99.90
44647;DHT22;56315;-33.902;151.160;2023-04-01T22:02:00;16.00;99.90
44647;DHT22;56315;-33.902;151.160;2023-04-01T22:04:41;16.00;99.90
44647;DHT22;56315;-33.902;151.160;2023-04-01T22:07:17;16.10;99.90
44647;DHT22;56315;-33.902;151.160;2023-04-01T22:10:05;16.20;99.90
44647;DHT22;56315;-33.902;151.160;2023-04-01T22:18:13;16.70;99.90
44647;DHT22;56315;-33.902;151.160;2023-04-01T22:23:37;16.90;99.90
44647;DHT22;56315;-33.902;151.160;2023-04-01T22:31:33;16.90;99.90
44647;DHT22;56315;-33.902;151.160;2023-04-01T22:39:57;16.90;99.90
44647;DHT22;56315;-33.902;151.160;2023-04-01T22:50:25;16.90;99.90
44647;DHT22;56315;-33.902;151.160;2023-04-01T22:53:08;16.90;99.90
44647;DHT22;56315;-33.902;151.160;2023-04-01T22:55:43;16.90;99.90
44647;DHT22;56315;-33.902;151.160;2023-04-01T22:58:37;16.90;99.90
44647;DHT22;56315;-33.902;151.160;2023-04-01T23:01:14;16.90;99.90
44647;DHT22;56315;-33.902;151.160;2023-04-01T23:03:45;16.90;99.90
44647;DHT22;56315;-33.902;151.160;2023-04-01T23:06:22;17.00;99.90
44647;DHT22;56315;-33.902;151.160;2023-04-01T23:35:54;18.20;99.90
44647;DHT22;56315;-33.902;151.160;2023-04-01T23:38:25;18.20;99.90
44647;DHT22;56315;-33.902;151.160;2023-04-01T23:40:54;18.30;99.90
44647;DHT22;56315;-33.902;151.160;2023-04-01T23:43:28;18.60;99.90
44647;DHT22;56315;-33.902;151.160;2023-04-01T23:46:01;19.10;99.90
44647;DHT22;56315;-33.902;151.160;2023-04-01T23:48:38;19.40;99.90
44647;DHT22;56315;-33.902;151.160;2023-04-01T23:51:21;19.50;99.90
44647;DHT22;56315;-33.902;151.160;2023-04-01T23:54:05;19.60;99.90
44647;DHT22;56315;-33.902;151.160;2023-04-01T23:56:47;19.60;99.90
44647;DHT22;56315;-33.902;151.160;2023-04-01T23:59:30;19.80;99.90
